Time,TemperatureF,DewpointF,PressureIn,WindDirection,WindDirectionDegrees,WindSpeedMPH,WindSpeedGustMPH,Humidity,HourlyPrecipIn,Conditions,Clouds,dailyrainin,SoftwareType,DateUTC
2013-03-16 00:02:00,51.0,36.0,29.87,North,0,0.0,2.0,57,0.00,,,0.00,,2013-03-16 04:02:00,
2013-03-16 00:13:00,51.0,36.0,29.87,North,0,0.0,2.0,57,0.00,,,0.00,,2013-03-16 04:13:00,
2013-03-16 00:23:00,50.0,36.0,29.86,North,0,0.0,1.0,59,0.00,,,0.00,,2013-03-16 04:23:00,
2013-03-16 00:33:00,50.0,36.0,29.85,North,0,0.0,1.0,59,0.00,,,0.00,,2013-03-16 04:33:00,
2013-03-16 00:43:00,50.0,36.0,29.85,North,0,0.0,1.0,59,0.00,,,0.00,,2013-03-16 04:43:00,
2013-03-16 00:52:00,50.0,36.0,29.85,North,0,0.0,3.0,59,0.00,,,0.00,,2013-03-16 04:52:00,
2013-03-16 01:02:00,50.0,36.0,29.85,North,0,0.0,5.0,59,0.00,,,0.00,,2013-03-16 05:02:00,
2013-03-16 01:12:00,50.0,36.0,29.85,North,0,0.0,5.0,59,0.00,,,0.00,,2013-03-16 05:12:00,
2013-03-16 01:22:00,50.0,36.0,29.85,North,0,0.0,5.0,59,0.00,,,0.00,,2013-03-16 05:22:00,
2013-03-16 01:32:00,51.0,38.0,29.84,North,0,0.0,6.0,60,0.00,,,0.00,,2013-03-16 05:32:00,
2013-03-16 01:42:00,51.0,38.0,29.84,North,0,0.0,6.0,60,0.00,,,0.00,,2013-03-16 05:42:00,
2013-03-16 01:53:00,51.0,38.0,29.83,North,0,0.0,3.0,60,0.00,,,0.00,,2013-03-16 05:53:00,
2013-03-16 02:02:00,51.0,38.0,29.83,North,0,0.0,3.0,60,0.00,,,0.00,,2013-03-16 06:02:00,
2013-03-16 02:12:00,51.0,38.0,29.83,North,0,0.0,3.0,60,0.00,,,0.00,,2013-03-16 06:12:00,
2013-03-16 02:22:00,51.0,38.0,29.83,North,0,0.0,1.0,61,0.00,,,0.00,,2013-03-16 06:22:00,
2013-03-16 02:32:00,50.0,38.0,29.82,North,0,0.0,1.0,62,0.00,,,0.00,,2013-03-16 06:32:00,
2013-03-16 02:42:00,50.0,38.0,29.82,North,0,0.0,1.0,62,0.00,,,0.00,,2013-03-16 06:42:00,
2013-03-16 02:52:00,50.0,38.0,29.82,North,0,0.0,1.0,63,0.00,,,0.00,,2013-03-16 06:52:00,
2013-03-16 03:02:00,49.0,37.0,29.82,North,0,0.0,0.0,64,0.00,,,0.00,,2013-03-16 07:02:00,
2013-03-16 03:12:00,49.0,37.0,29.82,North,0,0.0,0.0,64,0.00,,,0.00,,2013-03-16 07:12:00,
2013-03-16 03:22:00,49.0,38.0,29.81,North,0,0.0,1.0,65,0.00,,,0.00,,2013-03-16 07:22:00,
2013-03-16 03:32:00,49.0,38.0,29.81,North,0,0.0,1.0,66,0.00,,,0.00,,2013-03-16 07:32:00,
2013-03-16 03:42:00,49.0,38.0,29.81,North,0,0.0,1.0,66,0.00,,,0.00,,2013-03-16 07:42:00,
2013-03-16 03:52:00,48.0,38.0,29.80,North,0,0.0,1.0,67,0.00,,,0.00,,2013-03-16 07:52:00,
2013-03-16 04:03:00,48.0,38.0,29.80,North,0,0.0,1.0,67,0.00,,,0.00,,2013-03-16 08:03:00,
2013-03-16 04:12:00,48.0,38.0,29.80,North,0,0.0,1.0,67,0.00,,,0.00,,2013-03-16 08:12:00,
2013-03-16 04:23:00,48.0,38.0,29.80,North,0,0.0,1.0,68,0.00,,,0.00,,2013-03-16 08:23:00,
2013-03-16 04:33:00,48.0,38.0,29.79,North,0,0.0,1.0,68,0.00,,,0.00,,2013-03-16 08:33:00,
2013-03-16 04:42:00,48.0,38.0,29.79,North,0,0.0,1.0,68,0.00,,,0.00,,2013-03-16 08:42:00,
2013-03-16 04:52:00,48.0,38.0,29.79,North,0,0.0,1.0,68,0.00,,,0.00,,2013-03-16 08:52:00,
2013-03-16 05:02:00,48.0,38.0,29.78,North,0,0.0,4.0,69,0.00,,,0.00,,2013-03-16 09:02:00,
2013-03-16 05:12:00,48.0,38.0,29.78,North,0,0.0,4.0,69,0.00,,,0.00,,2013-03-16 09:12:00,
2013-03-16 05:22:00,48.0,38.0,29.78,North,0,0.0,4.0,69,0.00,,,0.00,,2013-03-16 09:22:00,
2013-03-16 05:33:00,49.0,39.0,29.78,North,0,0.0,2.0,69,0.00,,,0.00,,2013-03-16 09:33:00,
2013-03-16 05:42:00,49.0,39.0,29.78,North,0,0.0,2.0,69,0.00,,,0.00,,2013-03-16 09:42:00,
2013-03-16 05:53:00,49.0,39.0,29.79,North,0,0.0,4.0,69,0.00,,,0.00,,2013-03-16 09:53:00,
2013-03-16 06:03:00,49.0,39.0,29.78,North,0,0.0,1.0,69,0.00,,,0.00,,2013-03-16 10:03:00,
2013-03-16 06:12:00,49.0,39.0,29.78,North,0,0.0,1.0,69,0.00,,,0.00,,2013-03-16 10:12:00,
2013-03-16 06:23:00,49.0,39.0,29.78,North,0,0.0,4.0,69,0.00,,,0.00,,2013-03-16 10:23:00,
2013-03-16 06:32:00,49.0,40.0,29.79,North,0,0.0,2.0,70,0.00,,,0.00,,2013-03-16 10:32:00,
2013-03-16 06:42:00,49.0,40.0,29.79,North,0,0.0,2.0,70,0.00,,,0.00,,2013-03-16 10:42:00,
2013-03-16 06:52:00,49.0,40.0,29.79,North,0,0.0,3.0,71,0.00,,,0.00,,2013-03-16 10:52:00,
2013-03-16 07:03:00,49.0,40.0,29.79,North,0,0.0,5.0,71,0.00,,,0.00,,2013-03-16 11:03:00,
2013-03-16 07:12:00,49.0,40.0,29.79,North,0,0.0,5.0,71,0.00,,,0.00,,2013-03-16 11:12:00,
2013-03-16 07:22:00,50.0,41.0,29.80,North,0,0.0,2.0,70,0.00,,,0.00,,2013-03-16 11:22:00,
2013-03-16 07:33:00,50.0,41.0,29.80,North,0,0.0,2.0,70,0.00,,,0.00,,2013-03-16 11:33:00,
2013-03-16 07:43:00,50.0,41.0,29.80,North,0,0.0,2.0,70,0.00,,,0.00,,2013-03-16 11:43:00,
2013-03-16 07:52:00,51.0,42.0,29.80,North,0,0.0,2.0,70,0.00,,,0.00,,2013-03-16 11:52:00,
2013-03-16 08:02:00,51.0,42.0,29.79,North,0,0.0,5.0,71,0.00,,,0.00,,2013-03-16 12:02:00,
2013-03-16 08:12:00,51.0,42.0,29.79,North,0,0.0,5.0,71,0.00,,,0.00,,2013-03-16 12:12:00,
2013-03-16 08:22:00,51.0,42.0,29.79,North,0,0.0,5.0,71,0.00,,,0.00,,2013-03-16 12:22:00,
2013-03-16 08:32:00,52.0,43.0,29.79,SSE,168,2.0,9.0,71,0.00,,,0.00,,2013-03-16 12:32:00,
2013-03-16 08:42:00,52.0,43.0,29.79,SSE,168,2.0,9.0,71,0.00,,,0.00,,2013-03-16 12:42:00,
2013-03-16 08:53:00,52.0,43.0,29.79,North,0,0.0,3.0,70,0.00,,,0.00,,2013-03-16 12:53:00,
2013-03-16 09:02:00,53.0,43.0,29.80,North,0,0.0,2.0,70,0.00,,,0.00,,2013-03-16 13:02:00,
2013-03-16 09:12:00,53.0,43.0,29.80,North,0,0.0,2.0,70,0.00,,,0.00,,2013-03-16 13:12:00,
2013-03-16 09:22:00,53.0,43.0,29.80,North,0,0.0,2.0,70,0.00,,,0.00,,2013-03-16 13:22:00,
2013-03-16 09:32:00,54.0,44.0,29.80,North,0,0.0,3.0,70,0.00,,,0.00,,2013-03-16 13:32:00,
2013-03-16 09:42:00,54.0,44.0,29.80,North,0,0.0,3.0,70,0.00,,,0.00,,2013-03-16 13:42:00,
2013-03-16 09:53:00,54.0,44.0,29.80,West,269,1.0,4.0,70,0.00,,,0.00,,2013-03-16 13:53:00,
2013-03-16 10:03:00,55.0,45.0,29.80,SSW,201,1.0,6.0,70,0.00,,,0.00,,2013-03-16 14:03:00,
2013-03-16 10:12:00,55.0,45.0,29.80,SSW,201,1.0,6.0,70,0.00,,,0.00,,2013-03-16 14:12:00,
2013-03-16 10:22:00,55.0,45.0,29.80,SSW,201,1.0,6.0,70,0.00,,,0.00,,2013-03-16 14:22:00,
2013-03-16 10:32:00,57.0,47.0,29.78,SSE,160,1.0,5.0,68,0.00,,,0.00,,2013-03-16 14:32:00,
2013-03-16 10:42:00,57.0,47.0,29.78,SSE,160,1.0,5.0,68,0.00,,,0.00,,2013-03-16 14:42:00,
2013-03-16 10:53:00,57.0,47.0,29.78,SSE,160,1.0,5.0,68,0.00,,,0.00,,2013-03-16 14:53:00,
2013-03-16 11:03:00,59.0,48.0,29.78,North,0,0.0,2.0,66,0.00,,,0.00,,2013-03-16 15:03:00,
2013-03-16 11:13:00,59.0,48.0,29.78,North,0,0.0,2.0,66,0.00,,,0.00,,2013-03-16 15:13:00,
2013-03-16 11:23:00,61.0,49.0,29.77,North,0,0.0,4.0,65,0.00,,,0.00,,2013-03-16 15:23:00,
2013-03-16 11:33:00,65.0,49.0,29.76,SSW,207,2.0,9.0,57,0.00,,,0.00,,2013-03-16 15:33:00,
2013-03-16 11:43:00,65.0,49.0,29.76,SSW,207,2.0,9.0,57,0.00,,,0.00,,2013-03-16 15:43:00,
2013-03-16 11:53:00,65.0,49.0,29.76,SSW,207,2.0,9.0,57,0.00,,,0.00,,2013-03-16 15:53:00,
2013-03-16 12:03:00,67.0,49.0,29.75,SSE,148,4.0,11.0,52,0.00,,,0.00,,2013-03-16 16:03:00,
2013-03-16 12:12:00,67.0,49.0,29.75,SSE,148,4.0,11.0,52,0.00,,,0.00,,2013-03-16 16:12:00,
2013-03-16 12:23:00,68.0,50.0,29.74,North,0,0.0,7.0,53,0.00,,,0.00,,2013-03-16 16:23:00,
2013-03-16 12:33:00,68.0,49.0,29.74,SE,145,2.0,11.0,51,0.00,,,0.00,,2013-03-16 16:33:00,
2013-03-16 12:42:00,68.0,49.0,29.74,SE,145,2.0,11.0,51,0.00,,,0.00,,2013-03-16 16:42:00,
2013-03-16 12:53:00,68.0,49.0,29.74,SE,145,2.0,11.0,51,0.00,,,0.00,,2013-03-16 16:53:00,
2013-03-16 13:03:00,71.0,51.0,29.73,West,261,4.0,7.0,49,0.00,,,0.00,,2013-03-16 17:03:00,
2013-03-16 13:13:00,71.0,51.0,29.73,West,261,4.0,7.0,49,0.00,,,0.00,,2013-03-16 17:13:00,
2013-03-16 13:23:00,71.0,51.0,29.73,West,261,4.0,7.0,49,0.00,,,0.00,,2013-03-16 17:23:00,
2013-03-16 13:33:00,72.0,51.0,29.72,WNW,296,3.0,10.0,47,0.00,,,0.00,,2013-03-16 17:33:00,
2013-03-16 13:42:00,72.0,51.0,29.72,WNW,296,3.0,10.0,47,0.00,,,0.00,,2013-03-16 17:42:00,
2013-03-16 13:53:00,72.0,51.0,29.72,WNW,296,3.0,10.0,47,0.00,,,0.00,,2013-03-16 17:53:00,
2013-03-16 14:02:00,73.0,52.0,29.70,East,98,1.0,6.0,47,0.00,,,0.00,,2013-03-16 18:02:00,
2013-03-16 14:13:00,73.0,52.0,29.70,East,98,1.0,6.0,47,0.00,,,0.00,,2013-03-16 18:13:00,
2013-03-16 14:23:00,74.0,52.0,29.70,SSE,159,4.0,9.0,46,0.00,,,0.00,,2013-03-16 18:23:00,
2013-03-16 14:33:00,75.0,52.0,29.69,NNW,335,4.0,13.0,45,0.00,,,0.00,,2013-03-16 18:33:00,
2013-03-16 14:43:00,75.0,52.0,29.69,NNW,335,4.0,13.0,45,0.00,,,0.00,,2013-03-16 18:43:00,
2013-03-16 14:52:00,75.0,52.0,29.69,NNW,335,4.0,13.0,45,0.00,,,0.00,,2013-03-16 18:52:00,
2013-03-16 15:02:00,75.0,52.0,29.67,NW,322,2.0,7.0,44,0.00,,,0.00,,2013-03-16 19:02:00,
2013-03-16 15:12:00,75.0,52.0,29.67,NW,322,2.0,7.0,44,0.00,,,0.00,,2013-03-16 19:12:00,
2013-03-16 15:22:00,76.0,53.0,29.67,WNW,290,1.0,4.0,45,0.00,,,0.00,,2013-03-16 19:22:00,
2013-03-16 15:33:00,76.0,52.0,29.65,NW,311,2.0,13.0,44,0.00,,,0.00,,2013-03-16 19:33:00,
2013-03-16 15:42:00,76.0,52.0,29.65,NW,311,2.0,13.0,44,0.00,,,0.00,,2013-03-16 19:42:00,
2013-03-16 15:52:00,76.0,52.0,29.65,NW,311,2.0,13.0,44,0.00,,,0.00,,2013-03-16 19:52:00,
2013-03-16 16:02:00,77.0,51.0,29.64,NW,314,1.0,9.0,41,0.00,,,0.00,,2013-03-16 20:02:00,
2013-03-16 16:12:00,77.0,51.0,29.64,NW,314,1.0,9.0,41,0.00,,,0.00,,2013-03-16 20:12:00,
2013-03-16 16:22:00,78.0,52.0,29.64,West,260,3.0,13.0,41,0.00,,,0.00,,2013-03-16 20:22:00,
2013-03-16 16:33:00,76.0,52.0,29.64,North,0,0.0,13.0,43,0.00,,,0.00,,2013-03-16 20:33:00,
2013-03-16 16:42:00,76.0,52.0,29.64,North,0,0.0,13.0,43,0.00,,,0.00,,2013-03-16 20:42:00,
2013-03-16 16:52:00,77.0,52.0,29.64,SSE,166,1.0,10.0,42,0.00,,,0.00,,2013-03-16 20:52:00,
2013-03-16 17:02:00,76.0,51.0,29.63,NW,322,2.0,7.0,42,0.00,,,0.00,,2013-03-16 21:02:00,
2013-03-16 17:12:00,76.0,51.0,29.63,NW,322,2.0,7.0,42,0.00,,,0.00,,2013-03-16 21:12:00,
2013-03-16 17:22:00,77.0,51.0,29.62,WSW,257,3.0,16.0,41,0.00,,,0.00,,2013-03-16 21:22:00,
2013-03-16 17:33:00,76.0,51.0,29.62,SSE,167,5.0,15.0,42,0.00,,,0.00,,2013-03-16 21:33:00,
2013-03-16 17:43:00,76.0,51.0,29.62,SSE,167,5.0,15.0,42,0.00,,,0.00,,2013-03-16 21:43:00,
2013-03-16 17:52:00,75.0,50.0,29.62,NNW,339,1.0,7.0,42,0.00,,,0.00,,2013-03-16 21:52:00,
2013-03-16 18:03:00,75.0,52.0,29.61,North,0,0.0,6.0,44,0.00,,,0.00,,2013-03-16 22:03:00,
2013-03-16 18:12:00,75.0,52.0,29.61,North,0,0.0,6.0,44,0.00,,,0.00,,2013-03-16 22:12:00,
2013-03-16 18:23:00,74.0,50.0,29.61,WNW,296,1.0,6.0,43,0.00,,,0.00,,2013-03-16 22:23:00,
2013-03-16 18:33:00,74.0,51.0,29.62,North,0,0.0,4.0,44,0.00,,,0.00,,2013-03-16 22:33:00,
2013-03-16 18:42:00,74.0,51.0,29.62,North,0,0.0,4.0,44,0.00,,,0.00,,2013-03-16 22:42:00,
2013-03-16 18:52:00,74.0,51.0,29.62,NW,309,1.0,7.0,44,0.00,,,0.00,,2013-03-16 22:52:00,
2013-03-16 19:02:00,73.0,50.0,29.63,SE,129,1.0,7.0,44,0.00,,,0.00,,2013-03-16 23:02:00,
2013-03-16 19:13:00,73.0,50.0,29.63,SE,129,1.0,7.0,44,0.00,,,0.00,,2013-03-16 23:13:00,
2013-03-16 19:23:00,73.0,50.0,29.63,North,0,0.0,10.0,44,0.00,,,0.00,,2013-03-16 23:23:00,
2013-03-16 19:33:00,73.0,50.0,29.64,WNW,287,1.0,9.0,45,0.00,,,0.00,,2013-03-16 23:33:00,
2013-03-16 19:42:00,73.0,50.0,29.64,WNW,287,1.0,9.0,45,0.00,,,0.00,,2013-03-16 23:42:00,
2013-03-16 19:53:00,72.0,49.0,29.64,North,0,0.0,13.0,44,0.00,,,0.00,,2013-03-16 23:53:00,
2013-03-16 20:02:00,72.0,49.0,29.65,North,0,0.0,3.0,45,0.00,,,0.00,,2013-03-17 00:02:00,
2013-03-16 20:12:00,72.0,49.0,29.65,North,0,0.0,3.0,45,0.00,,,0.00,,2013-03-17 00:12:00,
2013-03-16 20:22:00,72.0,49.0,29.66,North,0,0.0,4.0,45,0.00,,,0.00,,2013-03-17 00:22:00,
2013-03-16 20:33:00,71.0,49.0,29.68,North,0,0.0,0.0,46,0.00,,,0.00,,2013-03-17 00:33:00,
2013-03-16 20:42:00,71.0,49.0,29.68,North,0,0.0,0.0,46,0.00,,,0.00,,2013-03-17 00:42:00,
2013-03-16 20:52:00,71.0,50.0,29.69,North,0,0.0,0.0,47,0.00,,,0.00,,2013-03-17 00:52:00,
2013-03-16 21:02:00,70.0,50.0,29.73,North,0,0.0,0.0,49,0.00,,,0.00,,2013-03-17 01:02:00,
2013-03-16 21:12:00,70.0,50.0,29.73,North,0,0.0,0.0,49,0.00,,,0.00,,2013-03-17 01:12:00,
2013-03-16 21:22:00,69.0,50.0,29.74,North,0,0.0,1.0,51,0.00,,,0.00,,2013-03-17 01:22:00,
2013-03-16 21:32:00,67.0,51.0,29.75,NNW,332,1.0,5.0,57,0.00,,,0.00,,2013-03-17 01:32:00,
2013-03-16 21:42:00,67.0,51.0,29.75,NNW,332,1.0,5.0,57,0.00,,,0.00,,2013-03-17 01:42:00,
2013-03-16 21:52:00,67.0,52.0,29.75,North,0,0.0,3.0,59,0.00,,,0.00,,2013-03-17 01:52:00,
2013-03-16 22:03:00,67.0,52.0,29.75,North,0,0.0,0.0,59,0.00,,,0.00,,2013-03-17 02:03:00,
2013-03-16 22:13:00,67.0,52.0,29.75,North,0,0.0,0.0,59,0.00,,,0.00,,2013-03-17 02:13:00,
2013-03-16 22:22:00,67.0,53.0,29.76,North,0,0.0,0.0,60,0.00,,,0.00,,2013-03-17 02:22:00,
2013-03-16 22:33:00,66.0,52.0,29.76,North,0,0.0,0.0,61,0.00,,,0.00,,2013-03-17 02:33:00,
2013-03-16 22:43:00,66.0,52.0,29.76,North,0,0.0,0.0,61,0.00,,,0.00,,2013-03-17 02:43:00,
2013-03-16 22:53:00,66.0,52.0,29.76,North,0,0.0,0.0,61,0.00,,,0.00,,2013-03-17 02:53:00,
2013-03-16 23:02:00,64.0,52.0,29.78,North,0,0.0,0.0,66,0.00,,,0.00,,2013-03-17 03:02:00,
2013-03-16 23:12:00,64.0,52.0,29.78,North,0,0.0,0.0,66,0.00,,,0.00,,2013-03-17 03:12:00,
2013-03-16 23:23:00,63.0,52.0,29.78,North,0,0.0,0.0,68,0.00,,,0.00,,2013-03-17 03:23:00,
2013-03-16 23:34:00,63.0,52.0,29.78,North,0,0.0,0.0,68,0.00,,,0.00,,2013-03-17 03:34:00,
2013-03-16 23:43:00,63.0,52.0,29.78,North,0,0.0,0.0,68,0.00,,,0.00,,2013-03-17 03:43:00,
2013-03-16 23:52:00,62.0,51.0,29.78,North,0,0.0,0.0,68,0.00,,,0.00,,2013-03-17 03:52:00,